Погода Ясеньна 2 недели

Любушское воеводство, Польша

16 - 29 июля
  • 16июля
    Сегодня
    +14°
    +27°
    Небольшая облачность, ливень
    ВремяПогодаТемператураВлажностьДавлениеВетер, м/сВероятность осадков
    02:00Облачно с прояснениями+20°C67 %751 мм3.5 м/с2 %
    05:00Облачно с прояснениями+19°C71 %751 мм3.0 м/с2 %
    08:00Пасмурно, дождь+21°C90 %752 мм2.9 м/с65 %
    11:00Пасмурно, ливень+22°C85 %752 мм3.9 м/с72 %
    14:00Небольшая облачность, ливень+25°C63 %752 мм3.4 м/с53 %
    17:00Ясно и безоблачно+27°C49 %751 мм4.4 м/с13 %
    20:00Практически безоблачно+25°C57 %752 мм2.0 м/с5 %
    23:00Ясно и безоблачно+20°C57 %753 мм3.0 м/с2 %
  • 17июля
    Среда
    +12°
    +26°
    Пасмурно, сплошная облачность
    ВремяПогодаТемператураВлажностьДавлениеВетер, м/сВероятность осадков
    02:00Ясно и безоблачно+18°C66 %755 мм3.1 м/с2 %
    05:00Ясно и безоблачно+15°C72 %755 мм2.9 м/с2 %
    08:00Облачно с прояснениями+20°C66 %757 мм3.0 м/с2 %
    11:00Небольшая облачность+23°C54 %757 мм4.4 м/с2 %
    14:00Пасмурно, сплошная облачность+25°C44 %757 мм5.5 м/с2 %
    17:00Небольшая облачность+25°C45 %757 мм4.6 м/с3 %
    20:00Облачно с прояснениями+22°C55 %758 мм2.5 м/с2 %
    23:00Ясно и безоблачно+17°C72 %759 мм1.8 м/с2 %
  • 18июля
    Четверг
    +15°
    +27°
    Небольшая облачность
    ВремяПогодаТемператураВлажностьДавлениеВетер, м/сВероятность осадков
    02:00Ясно и безоблачно+15°C79 %759 мм1.9 м/с2 %
    05:00Ясно и безоблачно+13°C89 %759 мм1.5 м/с2 %
    08:00Ясно и безоблачно+19°C76 %760 мм1.7 м/с2 %
    11:00Ясно и безоблачно+23°C61 %760 мм2.8 м/с2 %
    14:00Небольшая облачность+25°C49 %760 мм2.6 м/с2 %
    17:00Ясно и безоблачно+26°C46 %759 мм1.8 м/с2 %
    20:00Облачно с прояснениями+24°C62 %759 мм1.2 м/с2 %
    23:00Облачно с прояснениями+19°C69 %760 мм2.0 м/с2 %
  • 19июля
    Пятница
    +14°
    +29°
    Практически безоблачно
    ВремяПогодаТемператураВлажностьДавлениеВетер, м/сВероятность осадков
    02:00Облачно с прояснениями+18°C77 %759 мм1.9 м/с2 %
    05:00Небольшая облачность+15°C84 %759 мм1.8 м/с2 %
    08:00Ясно и безоблачно+21°C70 %759 мм0.7 м/с2 %
    11:00Ясно и безоблачно+26°C46 %759 мм1.0 м/с2 %
    14:00Практически безоблачно+28°C38 %758 мм1.4 м/с7 %
    17:00Небольшая облачность+29°C39 %757 мм2.4 м/с6 %
    20:00Ясно и безоблачно+25°C60 %757 мм2.2 м/с4 %
    23:00Ясно и безоблачно+20°C65 %757 мм1.9 м/с2 %
  • 20июля
    Суббота
    +17°
    +30°
    Ясно и безоблачно
    ВремяПогодаТемператураВлажностьДавлениеВетер, м/сВероятность осадков
    02:00Ясно и безоблачно+18°C73 %757 мм2.2 м/с2 %
    05:00Ясно и безоблачно+16°C88 %757 мм2.1 м/с2 %
    08:00Ясно и безоблачно+21°C74 %756 мм1.5 м/с2 %
    11:00Ясно и безоблачно+27°C48 %756 мм0.9 м/с2 %
    14:00Ясно и безоблачно+29°C39 %755 мм1.4 м/с9 %
    17:00Ясно и безоблачно+29°C36 %754 мм2.4 м/с6 %
    20:00Ясно и безоблачно+27°C54 %753 мм2.4 м/с6 %
    23:00Ясно и безоблачно+22°C55 %753 мм3.4 м/с2 %
Мы используем cookies
Соглашаюсь